sensor_id;sensor_type;location;lat;lon;timestamp;pressure;altitude;pressure_sealevel;temperature;humidity
67738;BME280;54534;43.612;1.572;2022-11-09T00:00:40;98842.03;;;19.35;54.57
67738;BME280;54534;43.612;1.572;2022-11-09T00:03:06;98839.50;;;19.33;54.30
67738;BME280;54534;43.612;1.572;2022-11-09T00:05:32;98835.03;;;19.34;54.51
67738;BME280;54534;43.612;1.572;2022-11-09T00:07:57;98840.34;;;19.34;54.21
67738;BME280;54534;43.612;1.572;2022-11-09T00:10:22;98838.66;;;19.33;54.20
67738;BME280;54534;43.612;1.572;2022-11-09T00:12:48;98822.66;;;19.33;54.30
67738;BME280;54534;43.612;1.572;2022-11-09T00:15:13;98822.66;;;19.33;54.01
67738;BME280;54534;43.612;1.572;2022-11-09T00:17:39;98821.00;;;19.32;53.99
67738;BME280;54534;43.612;1.572;2022-11-09T00:20:04;98819.31;;;19.31;53.94
67738;BME280;54534;43.612;1.572;2022-11-09T00:22:30;98819.31;;;19.31;53.87
67738;BME280;54534;43.612;1.572;2022-11-09T00:24:55;98818.44;;;19.30;54.08
67738;BME280;54534;43.612;1.572;2022-11-09T00:27:20;98810.47;;;19.30;53.86
67738;BME280;54534;43.612;1.572;2022-11-09T00:29:46;98819.44;;;19.29;53.75
67738;BME280;54534;43.612;1.572;2022-11-09T00:32:11;98815.94;;;19.29;53.87
67738;BME280;54534;43.612;1.572;2022-11-09T00:34:37;98825.75;;;19.28;53.65
67738;BME280;54534;43.612;1.572;2022-11-09T00:37:02;98823.09;;;19.28;53.61
67738;BME280;54534;43.612;1.572;2022-11-09T00:39:28;98814.25;;;19.28;53.58
67738;BME280;54534;43.612;1.572;2022-11-09T00:41:53;98812.56;;;19.27;53.76
67738;BME280;54534;43.612;1.572;2022-11-09T00:44:19;98819.56;;;19.28;53.73
67738;BME280;54534;43.612;1.572;2022-11-09T00:46:44;98819.72;;;19.26;53.62
67738;BME280;54534;43.612;1.572;2022-11-09T00:49:10;98817.91;;;19.27;53.66
67738;BME280;54534;43.612;1.572;2022-11-09T00:51:35;98813.53;;;19.26;53.52
67738;BME280;54534;43.612;1.572;2022-11-09T00:54:00;98810.03;;;19.25;53.46
67738;BME280;54534;43.612;1.572;2022-11-09T00:56:26;98809.06;;;19.26;53.68
67738;BME280;54534;43.612;1.572;2022-11-09T00:58:53;98810.19;;;19.23;53.45
67738;BME280;54534;43.612;1.572;2022-11-09T01:01:19;98813.69;;;19.24;53.53
67738;BME280;54534;43.612;1.572;2022-11-09T01:03:45;98805.81;;;19.22;53.47
67738;BME280;54534;43.612;1.572;2022-11-09T01:06:20;98801.34;;;19.23;53.33
67738;BME280;54534;43.612;1.572;2022-11-09T01:08:46;98796.84;;;19.23;53.26
67738;BME280;54534;43.612;1.572;2022-11-09T01:11:12;98810.28;;;19.22;53.39
67738;BME280;54534;43.612;1.572;2022-11-09T01:13:38;98804.16;;;19.21;53.25
67738;BME280;54534;43.612;1.572;2022-11-09T01:16:12;98804.97;;;19.22;53.47
67738;BME280;54534;43.612;1.572;2022-11-09T01:18:38;98820.13;;;19.21;53.46
67738;BME280;54534;43.612;1.572;2022-11-09T01:21:06;98807.78;;;19.20;53.49
67738;BME280;54534;43.612;1.572;2022-11-09T01:23:32;98799.78;;;19.20;53.46
67738;BME280;54534;43.612;1.572;2022-11-09T01:26:02;98789.13;;;19.20;53.27
67738;BME280;54534;43.612;1.572;2022-11-09T01:28:28;98790.94;;;19.20;53.33
67738;BME280;54534;43.612;1.572;2022-11-09T01:30:54;98790.94;;;19.20;53.14
67738;BME280;54534;43.612;1.572;2022-11-09T01:33:19;98789.28;;;19.19;53.48
67738;BME280;54534;43.612;1.572;2022-11-09T01:35:44;98802.44;;;19.20;53.35
67738;BME280;54534;43.612;1.572;2022-11-09T01:38:10;98793.75;;;19.18;53.35
67738;BME280;54534;43.612;1.572;2022-11-09T01:40:37;98806.94;;;19.20;53.51
67738;BME280;54534;43.612;1.572;2022-11-09T01:43:18;98803.41;;;19.19;53.19
67738;BME280;54534;43.612;1.572;2022-11-09T01:45:47;98806.19;;;19.18;53.13
67738;BME280;54534;43.612;1.572;2022-11-09T01:48:21;98805.34;;;19.17;53.49
67738;BME280;54534;43.612;1.572;2022-11-09T01:50:54;98810.69;;;19.17;53.07
67738;BME280;54534;43.612;1.572;2022-11-09T01:53:27;98802.69;;;19.17;53.21
67738;BME280;54534;43.612;1.572;2022-11-09T01:55:56;98796.50;;;19.17;53.31
67738;BME280;54534;43.612;1.572;2022-11-09T01:58:34;98793.03;;;19.16;53.36
67738;BME280;54534;43.612;1.572;2022-11-09T02:01:01;98785.84;;;19.17;53.59
67738;BME280;54534;43.612;1.572;2022-11-09T02:03:29;98790.38;;;19.16;53.17
67738;BME280;54534;43.612;1.572;2022-11-09T02:05:56;98778.84;;;19.16;53.16
67738;BME280;54534;43.612;1.572;2022-11-09T02:08:24;98779.69;;;19.16;53.30
67738;BME280;54534;43.612;1.572;2022-11-09T02:11:13;98774.38;;;19.16;53.07
67738;BME280;54534;43.612;1.572;2022-11-09T02:14:13;98776.47;;;19.12;53.40
67738;BME280;54534;43.612;1.572;2022-11-09T02:16:32;98774.66;;;19.13;53.19
67738;BME280;54534;43.612;1.572;2022-11-09T02:18:58;98772.78;;;19.14;53.40
67738;BME280;54534;43.612;1.572;2022-11-09T02:21:26;98780.78;;;19.14;53.10
67738;BME280;54534;43.612;1.572;2022-11-09T02:23:52;98784.31;;;19.14;53.38
67738;BME280;54534;43.612;1.572;2022-11-09T02:26:25;98780.78;;;19.14;53.31
67738;BME280;54534;43.612;1.572;2022-11-09T02:28:53;98775.59;;;19.12;53.34
67738;BME280;54534;43.612;1.572;2022-11-09T02:31:20;98783.47;;;19.14;53.35
67738;BME280;54534;43.612;1.572;2022-11-09T02:36:15;98774.66;;;19.13;53.19
67738;BME280;54534;43.612;1.572;2022-11-09T02:38:41;98767.63;;;19.12;53.25
67738;BME280;54534;43.612;1.572;2022-11-09T02:41:06;98767.63;;;19.12;53.26
67738;BME280;54534;43.612;1.572;2022-11-09T02:43:34;98767.63;;;19.12;53.24
67738;BME280;54534;43.612;1.572;2022-11-09T02:46:00;98767.63;;;19.12;53.18
67738;BME280;54534;43.612;1.572;2022-11-09T02:48:25;98765.91;;;19.11;53.04
67738;BME280;54534;43.612;1.572;2022-11-09T02:50:50;98759.63;;;19.12;53.18
67738;BME280;54534;43.612;1.572;2022-11-09T02:53:16;98749.94;;;19.11;52.99
67738;BME280;54534;43.612;1.572;2022-11-09T02:55:41;98752.59;;;19.11;53.07
67738;BME280;54534;43.612;1.572;2022-11-09T02:58:06;98743.63;;;19.12;53.32
67738;BME280;54534;43.612;1.572;2022-11-09T03:00:32;98746.31;;;19.12;53.29
67738;BME280;54534;43.612;1.572;2022-11-09T03:02:57;98742.94;;;19.10;52.99
67738;BME280;54534;43.612;1.572;2022-11-09T03:05:23;98741.94;;;19.11;53.08
67738;BME280;54534;43.612;1.572;2022-11-09T03:07:48;98729.63;;;19.10;53.18
67738;BME280;54534;43.612;1.572;2022-11-09T03:10:13;98741.13;;;19.10;53.11
67738;BME280;54534;43.612;1.572;2022-11-09T03:12:39;98742.09;;;19.09;52.96
67738;BME280;54534;43.612;1.572;2022-11-09T03:15:06;98742.09;;;19.09;53.22
67738;BME280;54534;43.612;1.572;2022-11-09T03:17:33;98735.78;;;19.10;53.21
67738;BME280;54534;43.612;1.572;2022-11-09T03:19:58;98739.41;;;19.09;53.18
67738;BME280;54534;43.612;1.572;2022-11-09T03:22:24;98736.75;;;19.09;53.04
67738;BME280;54534;43.612;1.572;2022-11-09T03:24:49;98744.75;;;19.09;53.13
67738;BME280;54534;43.612;1.572;2022-11-09T03:27:15;98746.56;;;19.09;53.33
67738;BME280;54534;43.612;1.572;2022-11-09T03:29:40;98753.72;;;19.08;53.23
67738;BME280;54534;43.612;1.572;2022-11-09T03:32:06;98751.91;;;19.09;52.89
67738;BME280;54534;43.612;1.572;2022-11-09T03:34:32;98756.38;;;19.08;53.06
67738;BME280;54534;43.612;1.572;2022-11-09T03:36:57;98742.25;;;19.08;53.13
67738;BME280;54534;43.612;1.572;2022-11-09T03:39:23;98755.56;;;19.08;53.22
67738;BME280;54534;43.612;1.572;2022-11-09T03:41:48;98749.22;;;19.09;53.01
67738;BME280;54534;43.612;1.572;2022-11-09T03:44:14;98743.22;;;19.07;53.01
67738;BME280;54534;43.612;1.572;2022-11-09T03:46:39;98744.06;;;19.07;53.08
67738;BME280;54534;43.612;1.572;2022-11-09T03:49:05;98748.38;;;19.08;52.99
67738;BME280;54534;43.612;1.572;2022-11-09T03:51:30;98752.91;;;19.08;52.93
67738;BME280;54534;43.612;1.572;2022-11-09T03:53:56;98754.72;;;19.07;53.15
67738;BME280;54534;43.612;1.572;2022-11-09T03:56:21;98753.03;;;19.06;53.07
67738;BME280;54534;43.612;1.572;2022-11-09T03:58:46;98756.53;;;19.07;53.07
67738;BME280;54534;43.612;1.572;2022-11-09T04:01:12;98750.22;;;19.08;52.84
67738;BME280;54534;43.612;1.572;2022-11-09T04:03:37;98751.19;;;19.07;52.71
67738;BME280;54534;43.612;1.572;2022-11-09T04:06:03;98741.50;;;19.06;53.14
67738;BME280;54534;43.612;1.572;2022-11-09T04:08:28;98745.03;;;19.06;52.91
67738;BME280;54534;43.612;1.572;2022-11-09T04:10:54;98751.19;;;19.07;52.93
67738;BME280;54534;43.612;1.572;2022-11-09T04:13:19;98751.34;;;19.05;53.18
67738;BME280;54534;43.612;1.572;2022-11-09T04:15:45;98758.34;;;19.06;53.07
67738;BME280;54534;43.612;1.572;2022-11-09T04:18:13;98763.69;;;19.06;52.83
67738;BME280;54534;43.612;1.572;2022-11-09T04:20:39;98769.00;;;19.06;53.09
67738;BME280;54534;43.612;1.572;2022-11-09T04:23:06;98768.16;;;19.06;53.09
67738;BME280;54534;43.612;1.572;2022-11-09T04:25:33;98773.47;;;19.06;53.08
67738;BME280;54534;43.612;1.572;2022-11-09T04:28:00;98769.00;;;19.06;52.78
67738;BME280;54534;43.612;1.572;2022-11-09T04:30:27;98773.47;;;19.06;53.07
67738;BME280;54534;43.612;1.572;2022-11-09T04:32:54;98776.16;;;19.06;53.08
67738;BME280;54534;43.612;1.572;2022-11-09T04:35:19;98777.16;;;19.05;52.79
67738;BME280;54534;43.612;1.572;2022-11-09T04:38:04;98779.81;;;19.05;52.83
67738;BME280;54534;43.612;1.572;2022-11-09T04:40:31;98772.78;;;19.04;53.06
67738;BME280;54534;43.612;1.572;2022-11-09T04:43:02;98781.63;;;19.04;52.97
67738;BME280;54534;43.612;1.572;2022-11-09T04:45:28;98791.44;;;19.04;52.90
67738;BME280;54534;43.612;1.572;2022-11-09T04:47:58;98792.28;;;19.04;52.83
67738;BME280;54534;43.612;1.572;2022-11-09T04:50:24;98790.59;;;19.03;52.96
67738;BME280;54534;43.612;1.572;2022-11-09T04:52:49;98797.75;;;19.03;52.82
67738;BME280;54534;43.612;1.572;2022-11-09T04:55:15;98796.91;;;19.02;52.81
67738;BME280;54534;43.612;1.572;2022-11-09T04:57:40;98798.59;;;19.03;52.84
67738;BME280;54534;43.612;1.572;2022-11-09T05:00:06;98793.41;;;19.01;52.72
67738;BME280;54534;43.612;1.572;2022-11-09T05:02:31;98793.41;;;19.01;52.79
67738;BME280;54534;43.612;1.572;2022-11-09T05:04:57;98799.59;;;19.02;52.98
67738;BME280;54534;43.612;1.572;2022-11-09T05:07:22;98803.09;;;19.03;52.47
67738;BME280;54534;43.612;1.572;2022-11-09T05:09:48;98810.25;;;19.02;52.77
67738;BME280;54534;43.612;1.572;2022-11-09T05:12:13;98815.56;;;19.02;53.12
67738;BME280;54534;43.612;1.572;2022-11-09T05:14:38;98818.22;;;19.02;53.01
67738;BME280;54534;43.612;1.572;2022-11-09T05:17:04;98810.25;;;19.02;52.75
67738;BME280;54534;43.612;1.572;2022-11-09T05:19:30;98799.59;;;19.02;52.82
67738;BME280;54534;43.612;1.572;2022-11-09T05:21:56;98800.44;;;19.03;53.01
67738;BME280;54534;43.612;1.572;2022-11-09T05:24:41;98800.53;;;19.01;52.76
67738;BME280;54534;43.612;1.572;2022-11-09T05:27:06;98801.41;;;19.01;53.05
67738;BME280;54534;43.612;1.572;2022-11-09T05:29:32;98797.03;;;19.00;52.83
67738;BME280;54534;43.612;1.572;2022-11-09T05:31:57;98803.22;;;19.01;52.85
67738;BME280;54534;43.612;1.572;2022-11-09T05:34:22;98802.38;;;19.00;52.96
67738;BME280;54534;43.612;1.572;2022-11-09T05:36:48;98808.53;;;19.01;52.85
67738;BME280;54534;43.612;1.572;2022-11-09T05:39:13;98804.06;;;19.01;52.82
67738;BME280;54534;43.612;1.572;2022-11-09T05:41:39;98803.22;;;19.01;52.99
67738;BME280;54534;43.612;1.572;2022-11-09T05:44:04;98802.38;;;19.00;52.96
67738;BME280;54534;43.612;1.572;2022-11-09T05:46:29;98806.72;;;19.01;52.73
67738;BME280;54534;43.612;1.572;2022-11-09T05:48:56;98810.25;;;19.02;52.94
67738;BME280;54534;43.612;1.572;2022-11-09T05:51:22;98809.38;;;19.01;52.97
67738;BME280;54534;43.612;1.572;2022-11-09T05:53:47;98804.91;;;19.02;52.86
67738;BME280;54534;43.612;1.572;2022-11-09T05:56:13;98804.91;;;19.02;52.71
67738;BME280;54534;43.612;1.572;2022-11-09T05:58:39;98804.06;;;19.01;53.11
67738;BME280;54534;43.612;1.572;2022-11-09T06:01:08;98808.53;;;19.01;53.04
67738;BME280;54534;43.612;1.572;2022-11-09T06:03:34;98804.06;;;19.01;52.99
67738;BME280;54534;43.612;1.572;2022-11-09T06:06:01;98805.88;;;19.01;52.90
67738;BME280;54534;43.612;1.572;2022-11-09T06:08:27;98805.88;;;19.01;52.97
67738;BME280;54534;43.612;1.572;2022-11-09T06:11:01;98811.22;;;19.01;52.82
67738;BME280;54534;43.612;1.572;2022-11-09T06:13:27;98819.19;;;19.01;52.74
67738;BME280;54534;43.612;1.572;2022-11-09T06:15:54;98826.22;;;19.02;53.18
67738;BME280;54534;43.612;1.572;2022-11-09T06:18:21;98827.19;;;19.01;52.76
67738;BME280;54534;43.612;1.572;2022-11-09T06:20:50;98831.56;;;19.02;52.96
67738;BME280;54534;43.612;1.572;2022-11-09T06:23:16;98835.19;;;19.01;52.83
67738;BME280;54534;43.612;1.572;2022-11-09T06:25:41;98828.88;;;19.02;52.94
67738;BME280;54534;43.612;1.572;2022-11-09T06:28:07;98850.19;;;19.02;52.82
67738;BME280;54534;43.612;1.572;2022-11-09T06:30:32;98852.03;;;19.01;53.20
67738;BME280;54534;43.612;1.572;2022-11-09T06:32:59;98840.50;;;19.01;52.89
67738;BME280;54534;43.612;1.572;2022-11-09T06:35:24;98847.53;;;19.02;52.90
67738;BME280;54534;43.612;1.572;2022-11-09T06:37:55;98841.38;;;19.01;53.05
67738;BME280;54534;43.612;1.572;2022-11-09T06:40:20;98842.22;;;19.02;52.91
67738;BME280;54534;43.612;1.572;2022-11-09T06:42:45;98843.06;;;19.03;53.08
67738;BME280;54534;43.612;1.572;2022-11-09T06:45:11;98844.03;;;19.01;53.10
67738;BME280;54534;43.612;1.572;2022-11-09T06:47:36;98849.34;;;19.01;53.04
67738;BME280;54534;43.612;1.572;2022-11-09T06:50:02;98858.19;;;19.02;53.34
67738;BME280;54534;43.612;1.572;2022-11-09T06:52:27;98844.88;;;19.02;52.86
67738;BME280;54534;43.612;1.572;2022-11-09T06:54:52;98855.53;;;19.02;53.06
67738;BME280;54534;43.612;1.572;2022-11-09T06:57:18;98856.50;;;19.01;53.20
67738;BME280;54534;43.612;1.572;2022-11-09T06:59:43;98865.34;;;19.01;53.09
67738;BME280;54534;43.612;1.572;2022-11-09T07:02:14;98868.84;;;19.02;52.72
67738;BME280;54534;43.612;1.572;2022-11-09T07:04:40;98877.81;;;19.01;53.07
67738;BME280;54534;43.612;1.572;2022-11-09T07:07:06;98877.69;;;19.03;53.09
67738;BME280;54534;43.612;1.572;2022-11-09T07:09:31;98875.84;;;19.03;53.28
67738;BME280;54534;43.612;1.572;2022-11-09T07:11:57;98868.00;;;19.01;53.24
67738;BME280;54534;43.612;1.572;2022-11-09T07:14:22;98878.66;;;19.01;52.92
67738;BME280;54534;43.612;1.572;2022-11-09T07:16:48;98878.66;;;19.01;52.96
67738;BME280;54534;43.612;1.572;2022-11-09T07:19:13;98894.66;;;19.01;53.07
67738;BME280;54534;43.612;1.572;2022-11-09T07:21:38;98901.78;;;19.01;52.97
67738;BME280;54534;43.612;1.572;2022-11-09T07:24:04;98896.34;;;19.03;52.89
67738;BME280;54534;43.612;1.572;2022-11-09T07:26:29;98896.34;;;19.03;53.09
67738;BME280;54534;43.612;1.572;2022-11-09T07:28:55;98893.69;;;19.03;53.29
67738;BME280;54534;43.612;1.572;2022-11-09T07:31:20;98892.69;;;19.04;53.10
67738;BME280;54534;43.612;1.572;2022-11-09T07:33:45;98878.66;;;19.01;53.21
67738;BME280;54534;43.612;1.572;2022-11-09T07:36:11;98883.03;;;19.03;53.02
67738;BME280;54534;43.612;1.572;2022-11-09T07:38:36;98896.34;;;19.03;53.11
67738;BME280;54534;43.612;1.572;2022-11-09T07:41:02;98898.16;;;19.02;53.04
67738;BME280;54534;43.612;1.572;2022-11-09T07:43:28;98907.81;;;19.03;53.19
67738;BME280;54534;43.612;1.572;2022-11-09T07:45:53;98908.66;;;19.04;53.09
67738;BME280;54534;43.612;1.572;2022-11-09T07:48:19;98910.63;;;19.01;53.05
67738;BME280;54534;43.612;1.572;2022-11-09T07:50:45;98909.66;;;19.03;53.16
67738;BME280;54534;43.612;1.572;2022-11-09T07:53:13;98909.66;;;19.03;53.16
67738;BME280;54534;43.612;1.572;2022-11-09T07:55:39;98915.81;;;19.03;53.11
67738;BME280;54534;43.612;1.572;2022-11-09T07:58:13;98917.66;;;19.03;53.34
67738;BME280;54534;43.612;1.572;2022-11-09T08:00:40;98927.47;;;19.02;53.29
67738;BME280;54534;43.612;1.572;2022-11-09T08:03:06;98930.00;;;19.04;53.21
67738;BME280;54534;43.612;1.572;2022-11-09T08:05:32;98938.97;;;19.03;53.17
67738;BME280;54534;43.612;1.572;2022-11-09T08:08:00;98939.78;;;19.03;53.14
67738;BME280;54534;43.612;1.572;2022-11-09T08:10:27;98942.47;;;19.03;53.19
67738;BME280;54534;43.612;1.572;2022-11-09T08:12:58;98941.66;;;19.03;53.32
67738;BME280;54534;43.612;1.572;2022-11-09T08:15:24;98944.31;;;19.03;53.43
67738;BME280;54534;43.612;1.572;2022-11-09T08:17:50;98956.63;;;19.04;53.24
67738;BME280;54534;43.612;1.572;2022-11-09T08:20:16;98961.97;;;19.04;53.41
67738;BME280;54534;43.612;1.572;2022-11-09T08:22:43;98957.63;;;19.03;53.28
67738;BME280;54534;43.612;1.572;2022-11-09T08:25:10;98961.97;;;19.04;53.41
67738;BME280;54534;43.612;1.572;2022-11-09T08:27:35;98960.28;;;19.03;53.31
67738;BME280;54534;43.612;1.572;2022-11-09T08:30:05;98971.78;;;19.03;53.09
67738;BME280;54534;43.612;1.572;2022-11-09T08:32:32;98969.97;;;19.04;53.20
67738;BME280;54534;43.612;1.572;2022-11-09T08:34:57;98967.28;;;19.04;53.17
67738;BME280;54534;43.612;1.572;2022-11-09T08:37:22;98978.81;;;19.04;53.32
67738;BME280;54534;43.612;1.572;2022-11-09T08:39:48;98995.75;;;19.03;53.27
67738;BME280;54534;43.612;1.572;2022-11-09T08:42:13;98999.25;;;19.04;53.12
67738;BME280;54534;43.612;1.572;2022-11-09T08:44:38;99000.13;;;19.04;53.25
67738;BME280;54534;43.612;1.572;2022-11-09T08:47:04;99003.75;;;19.03;53.11
67738;BME280;54534;43.612;1.572;2022-11-09T08:49:29;99007.25;;;19.04;53.27
67738;BME280;54534;43.612;1.572;2022-11-09T08:51:56;99004.59;;;19.04;53.27
67738;BME280;54534;43.612;1.572;2022-11-09T08:54:22;99004.59;;;19.04;53.28
67738;BME280;54534;43.612;1.572;2022-11-09T08:56:48;99012.59;;;19.04;53.48
67738;BME280;54534;43.612;1.572;2022-11-09T08:59:13;99015.25;;;19.04;53.25
67738;BME280;54534;43.612;1.572;2022-11-09T09:01:39;99019.72;;;19.03;53.53
67738;BME280;54534;43.612;1.572;2022-11-09T09:04:04;99018.78;;;19.04;53.23
67738;BME280;54534;43.612;1.572;2022-11-09T09:06:29;99024.94;;;19.05;53.35
67738;BME280;54534;43.612;1.572;2022-11-09T09:08:55;99032.09;;;19.04;53.11
67738;BME280;54534;43.612;1.572;2022-11-09T09:11:20;99032.09;;;19.04;53.33
67738;BME280;54534;43.612;1.572;2022-11-09T09:13:46;99046.38;;;19.03;53.25
67738;BME280;54534;43.612;1.572;2022-11-09T09:16:13;99048.09;;;19.04;53.37
67738;BME280;54534;43.612;1.572;2022-11-09T09:18:39;99046.25;;;19.05;53.09
67738;BME280;54534;43.612;1.572;2022-11-09T09:21:08;99048.09;;;19.04;53.11
67738;BME280;54534;43.612;1.572;2022-11-09T09:23:34;99054.25;;;19.05;53.00
67738;BME280;54534;43.612;1.572;2022-11-09T09:26:00;99053.41;;;19.04;53.32
67738;BME280;54534;43.612;1.572;2022-11-09T09:28:25;99064.91;;;19.05;53.41
67738;BME280;54534;43.612;1.572;2022-11-09T09:30:50;99071.09;;;19.05;53.36
67738;BME280;54534;43.612;1.572;2022-11-09T09:33:17;99071.09;;;19.05;53.25
67738;BME280;54534;43.612;1.572;2022-11-09T09:35:42;99063.09;;;19.05;53.29
67738;BME280;54534;43.612;1.572;2022-11-09T09:38:08;99058.59;;;19.06;53.46
67738;BME280;54534;43.612;1.572;2022-11-09T09:43:45;99062.13;;;19.06;53.32
67738;BME280;54534;43.612;1.572;2022-11-09T09:46:25;99073.63;;;19.07;53.66
67738;BME280;54534;43.612;1.572;2022-11-09T09:51:41;99070.00;;;19.08;53.51
67738;BME280;54534;43.612;1.572;2022-11-09T09:54:22;99074.47;;;19.07;53.65
67738;BME280;54534;43.612;1.572;2022-11-09T09:56:50;99073.63;;;19.07;53.61
67738;BME280;54534;43.612;1.572;2022-11-09T10:01:58;99074.47;;;19.07;53.72
67738;BME280;54534;43.612;1.572;2022-11-09T10:04:39;99075.31;;;19.08;53.21
67738;BME280;54534;43.612;1.572;2022-11-09T10:18:12;99109.13;;;19.07;53.29
67738;BME280;54534;43.612;1.572;2022-11-09T10:29:14;99120.63;;;19.08;53.23
67738;BME280;54534;43.612;1.572;2022-11-09T10:31:45;99120.63;;;19.08;53.44
67738;BME280;54534;43.612;1.572;2022-11-09T10:34:34;99122.31;;;19.09;53.52
67738;BME280;54534;43.612;1.572;2022-11-09T10:37:16;99125.97;;;19.08;53.31
67738;BME280;54534;43.612;1.572;2022-11-09T10:40:18;99127.63;;;19.09;53.33
67738;BME280;54534;43.612;1.572;2022-11-09T10:42:52;99130.28;;;19.09;53.54
67738;BME280;54534;43.612;1.572;2022-11-09T10:45:38;99127.63;;;19.09;53.59
67738;BME280;54534;43.612;1.572;2022-11-09T10:48:11;99135.63;;;19.09;53.56
67738;BME280;54534;43.612;1.572;2022-11-09T10:50:38;99138.28;;;19.09;53.58
67738;BME280;54534;43.612;1.572;2022-11-09T10:53:17;99137.31;;;19.10;53.46
67738;BME280;54534;43.612;1.572;2022-11-09T10:58:35;99144.31;;;19.11;53.27
67738;BME280;54534;43.612;1.572;2022-11-09T11:03:34;99145.19;;;19.11;53.22
67738;BME280;54534;43.612;1.572;2022-11-09T11:08:41;99146.03;;;19.12;53.24
67738;BME280;54534;43.612;1.572;2022-11-09T11:11:26;99143.38;;;19.12;53.52
67738;BME280;54534;43.612;1.572;2022-11-09T11:16:43;99157.53;;;19.12;53.46
67738;BME280;54534;43.612;1.572;2022-11-09T11:24:51;99159.34;;;19.12;53.44
67738;BME280;54534;43.612;1.572;2022-11-09T11:27:22;99162.03;;;19.12;53.39
67738;BME280;54534;43.612;1.572;2022-11-09T11:29:58;99157.53;;;19.12;53.42
67738;BME280;54534;43.612;1.572;2022-11-09T11:32:26;99162.03;;;19.12;53.49
67738;BME280;54534;43.612;1.572;2022-11-09T11:34:51;99166.50;;;19.11;53.47
67738;BME280;54534;43.612;1.572;2022-11-09T11:45:40;99171.56;;;19.15;53.57
67738;BME280;54534;43.612;1.572;2022-11-09T11:48:46;99164.53;;;19.14;53.27
67738;BME280;54534;43.612;1.572;2022-11-09T11:57:04;99166.25;;;19.15;53.55
67738;BME280;54534;43.612;1.572;2022-11-09T11:59:49;99159.09;;;19.15;53.36
67738;BME280;54534;43.612;1.572;2022-11-09T12:02:46;99158.25;;;19.15;53.31
67738;BME280;54534;43.612;1.572;2022-11-09T12:16:16;99182.13;;;19.16;53.11
67738;BME280;54534;43.612;1.572;2022-11-09T12:21:38;99190.13;;;19.16;53.11
67738;BME280;54534;43.612;1.572;2022-11-09T12:29:52;99196.28;;;19.17;53.10
67738;BME280;54534;43.612;1.572;2022-11-09T12:37:54;99200.78;;;19.16;53.20
67738;BME280;54534;43.612;1.572;2022-11-09T12:40:31;99211.44;;;19.16;53.21
67738;BME280;54534;43.612;1.572;2022-11-09T12:45:39;99203.44;;;19.16;52.96
67738;BME280;54534;43.612;1.572;2022-11-09T12:48:21;99195.47;;;19.16;53.16
67738;BME280;54534;43.612;1.572;2022-11-09T12:50:49;99194.59;;;19.16;53.14
67738;BME280;54534;43.612;1.572;2022-11-09T12:53:15;99193.59;;;19.17;53.06
67738;BME280;54534;43.612;1.572;2022-11-09T12:58:30;99194.59;;;19.16;53.21
67738;BME280;54534;43.612;1.572;2022-11-09T13:01:01;99195.47;;;19.16;53.18
67738;BME280;54534;43.612;1.572;2022-11-09T13:03:34;99193.75;;;19.15;52.93
67738;BME280;54534;43.612;1.572;2022-11-09T13:06:12;99198.94;;;19.17;53.22
67738;BME280;54534;43.612;1.572;2022-11-09T13:08:38;99198.13;;;19.16;53.24
67738;BME280;54534;43.612;1.572;2022-11-09T13:13:42;99201.59;;;19.17;53.13
67738;BME280;54534;43.612;1.572;2022-11-09T13:18:51;99200.78;;;19.16;53.15
67738;BME280;54534;43.612;1.572;2022-11-09T13:23:45;99205.97;;;19.18;53.07
67738;BME280;54534;43.612;1.572;2022-11-09T13:50:59;99228.25;;;19.17;53.18
67738;BME280;54534;43.612;1.572;2022-11-09T13:53:27;99230.94;;;19.17;53.16
67738;BME280;54534;43.612;1.572;2022-11-09T13:55:53;99230.84;;;19.18;52.97
67738;BME280;54534;43.612;1.572;2022-11-09T13:58:34;99237.97;;;19.18;53.38
67738;BME280;54534;43.612;1.572;2022-11-09T14:01:01;99245.97;;;19.18;53.01
67738;BME280;54534;43.612;1.572;2022-11-09T14:03:29;99243.44;;;19.16;52.87
67738;BME280;54534;43.612;1.572;2022-11-09T14:05:57;99243.28;;;19.18;53.00
67738;BME280;54534;43.612;1.572;2022-11-09T14:08:27;99252.16;;;19.18;53.13
67738;BME280;54534;43.612;1.572;2022-11-09T14:13:42;99247.78;;;19.17;52.83
67738;BME280;54534;43.612;1.572;2022-11-09T14:16:17;99258.44;;;19.17;53.09
67738;BME280;54534;43.612;1.572;2022-11-09T14:19:12;99263.69;;;19.19;53.19
67738;BME280;54534;43.612;1.572;2022-11-09T14:21:46;99268.16;;;19.18;53.09
67738;BME280;54534;43.612;1.572;2022-11-09T14:24:25;99257.50;;;19.18;53.23
67738;BME280;54534;43.612;1.572;2022-11-09T14:29:56;99272.59;;;19.18;53.15
67738;BME280;54534;43.612;1.572;2022-11-09T14:32:35;99277.94;;;19.18;53.29
67738;BME280;54534;43.612;1.572;2022-11-09T14:37:35;99287.75;;;19.17;53.40
67738;BME280;54534;43.612;1.572;2022-11-09T14:40:01;99289.56;;;19.17;53.31
67738;BME280;54534;43.612;1.572;2022-11-09T14:42:27;99297.56;;;19.17;53.21
67738;BME280;54534;43.612;1.572;2022-11-09T14:44:53;99296.50;;;19.19;53.14
67738;BME280;54534;43.612;1.572;2022-11-09T14:47:26;99301.81;;;19.19;53.05
67738;BME280;54534;43.612;1.572;2022-11-09T14:49:53;99304.59;;;19.18;53.19
67738;BME280;54534;43.612;1.572;2022-11-09T14:52:23;99305.47;;;19.18;53.26
67738;BME280;54534;43.612;1.572;2022-11-09T14:54:51;99316.13;;;19.18;53.29
67738;BME280;54534;43.612;1.572;2022-11-09T14:57:17;99320.59;;;19.18;53.23
67738;BME280;54534;43.612;1.572;2022-11-09T14:59:43;99329.47;;;19.18;53.05
67738;BME280;54534;43.612;1.572;2022-11-09T15:02:18;99332.00;;;19.20;53.26
67738;BME280;54534;43.612;1.572;2022-11-09T15:05:00;99335.66;;;19.19;53.26
67738;BME280;54534;43.612;1.572;2022-11-09T15:07:30;99337.47;;;19.18;53.21
67738;BME280;54534;43.612;1.572;2022-11-09T15:09:57;99350.03;;;19.16;53.25
67738;BME280;54534;43.612;1.572;2022-11-09T15:12:23;99358.03;;;19.16;53.31
67738;BME280;54534;43.612;1.572;2022-11-09T15:14:54;99351.72;;;19.17;53.15
67738;BME280;54534;43.612;1.572;2022-11-09T15:25:17;99358.78;;;19.18;53.22